sensor_id;sensor_type;location;lat;lon;timestamp;pressure;altitude;pressure_sealevel;temperature;humidity
70589;BME280;58152;49.202;18.744;2022-07-29T01:40:54;97482.53;;;20.41;54.40
70589;BME280;58152;49.202;18.744;2022-07-29T01:43:37;97481.94;;;20.38;54.61
70589;BME280;58152;49.202;18.744;2022-07-29T01:46:09;97472.78;;;20.30;54.52
70589;BME280;58152;49.202;18.744;2022-07-29T01:48:45;97476.28;;;20.31;54.80
70589;BME280;58152;49.202;18.744;2022-07-29T01:51:18;97472.56;;;20.22;54.95
70589;BME280;58152;49.202;18.744;2022-07-29T01:53:53;97472.72;;;20.21;55.08
70589;BME280;58152;49.202;18.744;2022-07-29T01:56:23;97473.28;;;20.24;54.82
70589;BME280;58152;49.202;18.744;2022-07-29T01:58:50;97477.53;;;20.27;55.01
70589;BME280;58152;49.202;18.744;2022-07-29T02:01:18;97475.69;;;20.27;54.92
70589;BME280;58152;49.202;18.744;2022-07-29T02:03:45;97470.75;;;20.23;55.06
70589;BME280;58152;49.202;18.744;2022-07-29T02:06:12;97460.63;;;20.17;54.99
70589;BME280;58152;49.202;18.744;2022-07-29T02:08:39;97483.22;;;20.22;54.95
70589;BME280;58152;49.202;18.744;2022-07-29T02:11:07;97475.00;;;20.14;55.13
70589;BME280;58152;49.202;18.744;2022-07-29T02:13:35;97481.91;;;20.17;55.05
70589;BME280;58152;49.202;18.744;2022-07-29T02:16:05;97467.41;;;20.10;55.23
70589;BME280;58152;49.202;18.744;2022-07-29T02:18:31;97477.22;;;20.09;55.23
70589;BME280;58152;49.202;18.744;2022-07-29T02:20:59;97469.94;;;20.11;55.34
70589;BME280;58152;49.202;18.744;2022-07-29T02:23:26;97467.06;;;20.03;55.25
70589;BME280;58152;49.202;18.744;2022-07-29T02:25:55;97475.53;;;20.08;55.37
70589;BME280;58152;49.202;18.744;2022-07-29T02:28:27;97473.09;;;20.05;55.57
70589;BME280;58152;49.202;18.744;2022-07-29T02:30:57;97473.25;;;20.03;55.49
70589;BME280;58152;49.202;18.744;2022-07-29T02:33:26;97461.38;;;19.96;55.54
70589;BME280;58152;49.202;18.744;2022-07-29T02:36:01;97462.22;;;19.97;56.06
70589;BME280;58152;49.202;18.744;2022-07-29T02:38:30;97456.44;;;19.92;55.60
70589;BME280;58152;49.202;18.744;2022-07-29T02:41:33;97447.66;;;19.80;56.54
70589;BME280;58152;49.202;18.744;2022-07-29T02:44:04;97444.84;;;19.82;55.98
70589;BME280;58152;49.202;18.744;2022-07-29T02:46:33;97448.72;;;19.77;56.00
70589;BME280;58152;49.202;18.744;2022-07-29T02:49:08;97446.06;;;19.77;55.99
70589;BME280;58152;49.202;18.744;2022-07-29T02:51:46;97446.44;;;19.73;56.41
70589;BME280;58152;49.202;18.744;2022-07-29T02:54:29;97454.78;;;19.79;56.44
70589;BME280;58152;49.202;18.744;2022-07-29T03:00:10;97457.81;;;19.75;56.17
70589;BME280;58152;49.202;18.744;2022-07-29T03:03:04;97439.66;;;19.69;56.33
70589;BME280;58152;49.202;18.744;2022-07-29T03:05:43;97444.00;;;19.70;56.47
70589;BME280;58152;49.202;18.744;2022-07-29T03:08:25;97451.53;;;19.76;56.41
70589;BME280;58152;49.202;18.744;2022-07-29T03:10:55;97455.16;;;19.75;56.34
70589;BME280;58152;49.202;18.744;2022-07-29T03:13:21;97448.50;;;19.69;56.65
70589;BME280;58152;49.202;18.744;2022-07-29T03:15:51;97450.78;;;19.74;56.63
70589;BME280;58152;49.202;18.744;2022-07-29T03:18:26;97457.59;;;19.67;56.46
70589;BME280;58152;49.202;18.744;2022-07-29T03:20:52;97466.38;;;19.56;56.49
70589;BME280;58152;49.202;18.744;2022-07-29T03:23:22;97466.50;;;19.54;56.81
70589;BME280;58152;49.202;18.744;2022-07-29T03:25:55;97463.59;;;19.46;56.97
70589;BME280;58152;49.202;18.744;2022-07-29T03:28:22;97467.84;;;19.49;56.90
70589;BME280;58152;49.202;18.744;2022-07-29T03:31:07;97467.38;;;19.44;56.83
70589;BME280;58152;49.202;18.744;2022-07-29T03:33:36;97469.44;;;19.40;57.25
70589;BME280;58152;49.202;18.744;2022-07-29T03:36:05;97458.06;;;19.38;57.49
70589;BME280;58152;49.202;18.744;2022-07-29T03:38:42;97462.88;;;19.55;57.65
70589;BME280;58152;49.202;18.744;2022-07-29T03:41:30;97459.38;;;19.55;57.13
70589;BME280;58152;49.202;18.744;2022-07-29T03:43:58;97469.03;;;19.56;57.02
70589;BME280;58152;49.202;18.744;2022-07-29T03:46:26;97466.03;;;19.49;57.18
70589;BME280;58152;49.202;18.744;2022-07-29T03:48:57;97461.31;;;19.42;56.98
70589;BME280;58152;49.202;18.744;2022-07-29T03:51:24;97457.34;;;19.36;57.42
70589;BME280;58152;49.202;18.744;2022-07-29T03:53:50;97455.88;;;19.32;57.29
70589;BME280;58152;49.202;18.744;2022-07-29T03:56:21;97448.00;;;19.19;57.48
70589;BME280;58152;49.202;18.744;2022-07-29T03:58:50;97467.25;;;19.23;57.67
70589;BME280;58152;49.202;18.744;2022-07-29T04:01:17;97453.47;;;19.18;57.73
70589;BME280;58152;49.202;18.744;2022-07-29T04:03:46;97449.00;;;19.18;57.91
70589;BME280;58152;49.202;18.744;2022-07-29T04:06:12;97452.50;;;19.19;57.87
70589;BME280;58152;49.202;18.744;2022-07-29T04:08:40;97455.28;;;19.17;57.77
70589;BME280;58152;49.202;18.744;2022-07-29T04:11:09;97456.75;;;19.21;57.86
70589;BME280;58152;49.202;18.744;2022-07-29T04:13:34;97450.56;;;19.21;57.99
70589;BME280;58152;49.202;18.744;2022-07-29T04:16:00;97456.97;;;19.18;58.03
70589;BME280;58152;49.202;18.744;2022-07-29T04:18:25;97464.84;;;19.20;57.97
70589;BME280;58152;49.202;18.744;2022-07-29T04:20:51;97452.84;;;19.14;58.12
70589;BME280;58152;49.202;18.744;2022-07-29T04:23:17;97461.81;;;19.13;58.18
70589;BME280;58152;49.202;18.744;2022-07-29T04:25:45;97454.66;;;19.14;58.29
70589;BME280;58152;49.202;18.744;2022-07-29T04:28:11;97451.28;;;19.12;58.29
70589;BME280;58152;49.202;18.744;2022-07-29T04:30:37;97457.09;;;19.17;58.58
70589;BME280;58152;49.202;18.744;2022-07-29T04:33:05;97454.66;;;19.14;58.57
70589;BME280;58152;49.202;18.744;2022-07-29T04:35:34;97465.44;;;19.23;58.65
70589;BME280;58152;49.202;18.744;2022-07-29T04:38:00;97450.31;;;19.13;58.41
70589;BME280;58152;49.202;18.744;2022-07-29T04:40:26;97458.66;;;19.19;58.32
70589;BME280;58152;49.202;18.744;2022-07-29T04:42:52;97447.53;;;19.14;58.54
70589;BME280;58152;49.202;18.744;2022-07-29T04:45:18;97452.75;;;19.16;58.63
70589;BME280;58152;49.202;18.744;2022-07-29T04:47:43;97449.25;;;19.15;58.55
70589;BME280;58152;49.202;18.744;2022-07-29T04:50:09;97450.94;;;19.16;58.65
70589;BME280;58152;49.202;18.744;2022-07-29T04:52:35;97438.97;;;19.11;58.79
70589;BME280;58152;49.202;18.744;2022-07-29T04:55:01;97442.34;;;19.13;58.79
70589;BME280;58152;49.202;18.744;2022-07-29T04:57:26;97447.44;;;19.16;58.74
70589;BME280;58152;49.202;18.744;2022-07-29T04:59:52;97450.69;;;19.19;58.86
70589;BME280;58152;49.202;18.744;2022-07-29T05:02:17;97436.19;;;19.12;58.96
70589;BME280;58152;49.202;18.744;2022-07-29T05:04:43;97446.47;;;19.17;58.91
70589;BME280;58152;49.202;18.744;2022-07-29T05:07:09;97457.44;;;19.23;59.19
70589;BME280;58152;49.202;18.744;2022-07-29T05:09:34;97449.59;;;19.22;59.39
70589;BME280;58152;49.202;18.744;2022-07-29T05:12:00;97438.84;;;19.23;59.07
70589;BME280;58152;49.202;18.744;2022-07-29T05:14:26;97452.50;;;19.30;59.38
70589;BME280;58152;49.202;18.744;2022-07-29T05:16:51;97444.91;;;19.25;59.20
70589;BME280;58152;49.202;18.744;2022-07-29T05:19:18;97442.72;;;19.30;59.24
70589;BME280;58152;49.202;18.744;2022-07-29T05:21:44;97427.25;;;19.24;59.32
70589;BME280;58152;49.202;18.744;2022-07-29T05:24:10;97440.41;;;19.26;59.38
70589;BME280;58152;49.202;18.744;2022-07-29T05:26:36;97432.31;;;19.27;59.30
70589;BME280;58152;49.202;18.744;2022-07-29T05:29:02;97434.00;;;19.28;59.41
70589;BME280;58152;49.202;18.744;2022-07-29T05:31:28;97443.06;;;19.37;59.35
70589;BME280;58152;49.202;18.744;2022-07-29T05:33:53;97443.81;;;19.39;59.69
70589;BME280;58152;49.202;18.744;2022-07-29T05:36:19;97441.84;;;19.41;59.68
70589;BME280;58152;49.202;18.744;2022-07-29T05:38:53;97446.81;;;19.46;60.01
70589;BME280;58152;49.202;18.744;2022-07-29T05:41:19;97439.81;;;19.45;59.94
70589;BME280;58152;49.202;18.744;2022-07-29T05:43:44;97437.84;;;19.47;60.19
70589;BME280;58152;49.202;18.744;2022-07-29T05:46:10;97447.66;;;19.46;60.04
70589;BME280;58152;49.202;18.744;2022-07-29T05:48:36;97440.66;;;19.45;59.93
70589;BME280;58152;49.202;18.744;2022-07-29T05:51:01;97449.94;;;19.51;60.27
70589;BME280;58152;49.202;18.744;2022-07-29T05:54:04;97443.41;;;19.55;61.12
70589;BME280;58152;49.202;18.744;2022-07-29T05:56:39;97439.06;;;19.54;60.67
70589;BME280;58152;49.202;18.744;2022-07-29T06:02:26;97447.53;;;19.59;60.33
70589;BME280;58152;49.202;18.744;2022-07-29T06:05:25;97445.50;;;19.63;60.85
70589;BME280;58152;49.202;18.744;2022-07-29T06:08:00;97447.19;;;19.64;60.57
70589;BME280;58152;49.202;18.744;2022-07-29T09:15:42;97406.56;;;22.39;55.09
70589;BME280;58152;49.202;18.744;2022-07-29T09:33:10;97392.56;;;22.83;55.08
70589;BME280;58152;49.202;18.744;2022-07-29T09:39:04;97380.16;;;23.02;54.79
70589;BME280;58152;49.202;18.744;2022-07-29T09:41:58;97373.19;;;23.09;54.76
70589;BME280;58152;49.202;18.744;2022-07-29T09:44:55;97372.31;;;23.18;54.92
70589;BME280;58152;49.202;18.744;2022-07-29T09:47:41;97367.06;;;23.26;54.53
70589;BME280;58152;49.202;18.744;2022-07-29T09:50:39;97351.56;;;23.30;54.47
70589;BME280;58152;49.202;18.744;2022-07-29T10:06:29;97345.03;;;23.88;52.05
70589;BME280;58152;49.202;18.744;2022-07-29T10:09:45;97335.53;;;23.93;52.75
70589;BME280;58152;49.202;18.744;2022-07-29T10:23:20;97333.63;;;24.65;49.43
70589;BME280;58152;49.202;18.744;2022-07-29T10:55:10;97326.63;;;26.07;43.35
70589;BME280;58152;49.202;18.744;2022-07-29T10:58:32;97327.13;;;25.95;44.41
70589;BME280;58152;49.202;18.744;2022-07-29T11:01:47;97336.50;;;25.91;44.64
70589;BME280;58152;49.202;18.744;2022-07-29T11:18:39;97324.94;;;26.55;43.98
70589;BME280;58152;49.202;18.744;2022-07-29T11:36:31;97307.97;;;26.14;44.81
70589;BME280;58152;49.202;18.744;2022-07-29T15:04:42;97285.97;;;27.69;50.14
70589;BME280;58152;49.202;18.744;2022-07-29T15:07:52;97292.00;;;27.48;50.40
70589;BME280;58152;49.202;18.744;2022-07-29T15:10:45;97299.19;;;27.25;50.79
70589;BME280;58152;49.202;18.744;2022-07-29T15:13:11;97300.75;;;27.11;50.77
70589;BME280;58152;49.202;18.744;2022-07-29T15:15:36;97291.38;;;26.99;51.22
70589;BME280;58152;49.202;18.744;2022-07-29T15:18:08;97285.66;;;26.94;51.07
70589;BME280;58152;49.202;18.744;2022-07-29T15:20:34;97285.69;;;26.85;51.08
70589;BME280;58152;49.202;18.744;2022-07-29T15:23:00;97282.13;;;26.93;50.89
70589;BME280;58152;49.202;18.744;2022-07-29T15:25:26;97283.63;;;26.96;50.94
70589;BME280;58152;49.202;18.744;2022-07-29T15:27:51;97271.72;;;26.90;50.79
70589;BME280;58152;49.202;18.744;2022-07-29T15:30:17;97272.88;;;26.96;50.83
70589;BME280;58152;49.202;18.744;2022-07-29T15:32:43;97277.94;;;26.91;50.85
70589;BME280;58152;49.202;18.744;2022-07-29T15:35:09;97285.38;;;26.80;51.07
70589;BME280;58152;49.202;18.744;2022-07-29T15:37:38;97280.16;;;26.79;51.18
70589;BME280;58152;49.202;18.744;2022-07-29T15:40:07;97286.06;;;26.74;51.89
70589;BME280;58152;49.202;18.744;2022-07-29T15:42:40;97294.09;;;26.82;51.59
70589;BME280;58152;49.202;18.744;2022-07-29T15:45:06;97289.75;;;26.73;51.70
70589;BME280;58152;49.202;18.744;2022-07-29T15:47:35;97304.22;;;26.72;51.27
70589;BME280;58152;49.202;18.744;2022-07-29T15:50:00;97287.25;;;26.64;51.77
70589;BME280;58152;49.202;18.744;2022-07-29T15:52:26;97294.19;;;26.58;51.42
70589;BME280;58152;49.202;18.744;2022-07-29T15:54:53;97305.78;;;26.58;51.55
70589;BME280;58152;49.202;18.744;2022-07-29T15:57:19;97313.69;;;26.52;51.85
70589;BME280;58152;49.202;18.744;2022-07-29T15:59:45;97314.00;;;26.41;51.96
70589;BME280;58152;49.202;18.744;2022-07-29T16:02:10;97323.41;;;26.36;52.11
70589;BME280;58152;49.202;18.744;2022-07-29T16:04:36;97328.97;;;26.27;52.12
70589;BME280;58152;49.202;18.744;2022-07-29T16:07:02;97337.72;;;26.21;52.25
70589;BME280;58152;49.202;18.744;2022-07-29T16:09:28;97345.94;;;26.19;51.92
70589;BME280;58152;49.202;18.744;2022-07-29T16:11:53;97361.06;;;26.12;51.55
70589;BME280;58152;49.202;18.744;2022-07-29T16:22:19;97358.66;;;25.76;52.58
70589;BME280;58152;49.202;18.744;2022-07-29T16:25:20;97347.53;;;25.71;53.64
70589;BME280;58152;49.202;18.744;2022-07-29T16:28:13;97364.81;;;25.69;54.88
70589;BME280;58152;49.202;18.744;2022-07-29T16:30:39;97374.34;;;25.55;54.39
70589;BME280;58152;49.202;18.744;2022-07-29T16:33:05;97369.09;;;25.45;55.06
70589;BME280;58152;49.202;18.744;2022-07-29T16:35:30;97368.94;;;25.39;55.03
70589;BME280;58152;49.202;18.744;2022-07-29T16:56:11;97331.97;;;24.98;59.27
70589;BME280;58152;49.202;18.744;2022-07-29T17:20:24;97383.59;;;24.66;59.04
70589;BME280;58152;49.202;18.744;2022-07-29T17:22:51;97388.94;;;24.66;58.96
70589;BME280;58152;49.202;18.744;2022-07-29T18:39:04;97324.44;;;23.70;61.98
70589;BME280;58152;49.202;18.744;2022-07-29T18:41:38;97322.91;;;23.68;61.96
70589;BME280;58152;49.202;18.744;2022-07-29T18:51:21;97322.09;;;23.57;62.43
70589;BME280;58152;49.202;18.744;2022-07-29T18:53:53;97310.63;;;23.47;61.67
70589;BME280;58152;49.202;18.744;2022-07-29T19:03:59;97299.59;;;23.32;62.52
70589;BME280;58152;49.202;18.744;2022-07-29T19:07:06;97304.94;;;23.32;62.86
70589;BME280;58152;49.202;18.744;2022-07-29T19:34:56;97360.03;;;22.98;63.38
70589;BME280;58152;49.202;18.744;2022-07-29T19:45:12;97407.38;;;22.78;63.39
70589;BME280;58152;49.202;18.744;2022-07-29T20:12:31;97390.50;;;22.58;64.13
70589;BME280;58152;49.202;18.744;2022-07-29T20:14:57;97386.84;;;22.59;64.09
70589;BME280;58152;49.202;18.744;2022-07-29T20:17:32;97390.50;;;22.58;64.78
70589;BME280;58152;49.202;18.744;2022-07-29T20:20:11;97388.81;;;22.57;65.09
70589;BME280;58152;49.202;18.744;2022-07-29T20:25:52;97362.94;;;22.48;65.06
70589;BME280;58152;49.202;18.744;2022-07-29T20:28:18;97370.97;;;22.48;64.94
70589;BME280;58152;49.202;18.744;2022-07-29T20:30:47;97362.94;;;22.48;65.00
70589;BME280;58152;49.202;18.744;2022-07-29T20:33:30;97364.78;;;22.47;65.79
70589;BME280;58152;49.202;18.744;2022-07-29T20:39:28;97348.59;;;22.39;66.24
70589;BME280;58152;49.202;18.744;2022-07-29T20:42:02;97352.00;;;22.41;65.52
70589;BME280;58152;49.202;18.744;2022-07-29T21:15:51;97304.75;;;22.13;66.97
70589;BME280;58152;49.202;18.744;2022-07-29T21:19:13;97284.50;;;22.10;66.66
70589;BME280;58152;49.202;18.744;2022-07-29T21:26:10;97283.78;;;22.08;66.72
70589;BME280;58152;49.202;18.744;2022-07-29T21:29:12;97278.59;;;22.16;65.94
70589;BME280;58152;49.202;18.744;2022-07-29T21:35:22;97298.56;;;22.12;65.52
70589;BME280;58152;49.202;18.744;2022-07-29T21:37:50;97297.63;;;22.13;65.77
70589;BME280;58152;49.202;18.744;2022-07-29T21:40:19;97291.13;;;22.06;65.39
70589;BME280;58152;49.202;18.744;2022-07-29T21:54:22;97284.66;;;21.79;66.71
70589;BME280;58152;49.202;18.744;2022-07-29T22:10:31;97292.53;;;21.71;66.17
70589;BME280;58152;49.202;18.744;2022-07-29T22:20:02;97271.47;;;21.59;66.51
70589;BME280;58152;49.202;18.744;2022-07-29T22:22:59;97267.09;;;21.57;66.85
70589;BME280;58152;49.202;18.744;2022-07-29T22:32:28;97250.94;;;21.49;67.31
70589;BME280;58152;49.202;18.744;2022-07-29T22:39:23;97239.00;;;21.44;68.22
70589;BME280;58152;49.202;18.744;2022-07-29T22:42:19;97244.63;;;21.41;68.18
70589;BME280;58152;49.202;18.744;2022-07-29T22:49:13;97250.94;;;21.40;67.91
70589;BME280;58152;49.202;18.744;2022-07-29T23:06:34;97225.91;;;21.21;67.58
70589;BME280;58152;49.202;18.744;2022-07-29T23:13:18;97228.44;;;21.23;67.74
70589;BME280;58152;49.202;18.744;2022-07-29T23:15:48;97220.84;;;21.18;67.45
70589;BME280;58152;49.202;18.744;2022-07-29T23:22:02;97223.50;;;21.18;68.28
70589;BME280;58152;49.202;18.744;2022-07-29T23:32:00;97220.94;;;21.07;67.91
70589;BME280;58152;49.202;18.744;2022-07-29T23:44:37;97206.34;;;20.92;68.53
70589;BME280;58152;49.202;18.744;2022-07-29T23:57:22;97190.16;;;20.84;68.66
